This is the latest recevied weather packets stored in our database for station/object SP6KBU-12. If no packets are shown the sender has not sent any weather packets the latest 10 day(s).
| Time | Temp. | Humidity | Pressure | Rain* | Wind** | Luminosity | Snow |
|---|---|---|---|---|---|---|---|
| 1777400440 | 7.22° C | 29% | 1025 hPa | - | - | - | - |
| 1777399540 | 8.89° C | 26% | 1024.9 hPa | - | - | - | - |
| 1777398640 | 10.56° C | 24% | 1024.7 hPa | - | - | - | - |
| 1777397739 | 12.22° C | 22% | 1024.5 hPa | - | - | - | - |
| 1777397439 | 12.78° C | 22% | 1024.5 hPa | - | - | - | - |
| 1777396536 | 13.33° C | 21% | 1024.4 hPa | - | - | - | - |
| 1777395635 | 14.44° C | 20% | 1024.4 hPa | - | - | - | - |
| 1777394736 | 14.44° C | 20% | 1024.3 hPa | - | - | - | - |
| 1777393836 | 15° C | 21% | 1024.4 hPa | - | - | - | - |
| 1777392935 | 15° C | 20% | 1024.3 hPa | - | - | - | - |
| 1777392035 | 15.56° C | 20% | 1024.5 hPa | - | - | - | - |
| 1777391135 | 15.56° C | 20% | 1024.4 hPa | - | - | - | - |
| 1777390235 | 16.11° C | 21% | 1024.5 hPa | - | - | - | - |
| 1777389335 | 14.44° C | 21% | 1024.5 hPa | - | - | - | - |
| 1777388435 | 14.44° C | 21% | 1024.6 hPa | - | - | - | - |
| 1777387534 | 15.56° C | 21% | 1024.7 hPa | - | - | - | - |
| 1777386632 | 15° C | 21% | 1024.8 hPa | - | - | - | - |
| 1777385732 | 15° C | 21% | 1024.9 hPa | - | - | - | - |
| 1777384832 | 15.56° C | 21% | 1024.9 hPa | - | - | - | - |
| 1777383931 | 14.44° C | 23% | 1025 hPa | - | - | - | - |
| 1777383031 | 15° C | 23% | 1025 hPa | - | - | - | - |
| 1777382131 | 14.44° C | 22% | 1025.2 hPa | - | - | - | - |
| 1777381232 | 14.44° C | 22% | 1025.2 hPa | - | - | - | - |
| 1777380332 | 14.44° C | 22% | 1025.2 hPa | - | - | - | - |
| 1777379432 | 15° C | 24% | 1025.4 hPa | - | - | - | - |
* Rain since midnight (hover to see other rain measurements)
** Current wind speed in m/s (hover to see current wind gust speed)